AirNav   Air Wisconsin pilot careers
 
 438 users online  

4M1 Carroll County Airport
Berryville, Arkansas, USA

GOING TO BERRYVILLE?


FAA INFORMATION EFFECTIVE 26 APRIL 2018

Location

FAA Identifier: 4M1
Lat/Long: 36-22-52.8000N / 093-37-28.4000W
36-22.880000N / 093-37.473333W
36.3813333 / -93.6245556
(estimated)
Elevation: 1205.5 ft. / 367.4 m (surveyed)
Variation: 02E (2010)
From city: 3 miles W of BERRYVILLE, AR
Time zone: UTC -5 (UTC -6 during Standard Time)
Zip code: 72616

Airport Operations

Airport use: Open to the public
Activation date: 05/1966
Control tower: no
ARTCC: MEMPHIS CENTER
FSS: JONESBORO FLIGHT SERVICE STATION
NOTAMs facility: JBR (NOTAM-D service available)
Attendance: MON-FRI 0800-1600
Wind indicator: lighted
Segmented circle: yes
Lights: ACTVT MIRL RY 07/25, TWY LGTS, REIL RYS 07 & 25 - CTAF.
Beacon: white-green (lighted land airport)
Operates sunset to sunrise.

Airport Communications

CTAF: 122.9
RAZORBACK APPROACH: 126.6
RAZORBACK DEPARTURE: 126.6
  • APCH/DEP SERVICE PRVDD BY MEMPHIS ARTCC ON FREQS 126.1/269.0 (FAYETTEVILLE RCAG) WHEN RAZORBACK APCH CTL CLSD.

Nearby radio navigation aids

VOR radial/distance  VOR name  Freq  Var
HROr277/20.2HARRISON VOR/DME112.5004E
RZCr067/25.3RAZORBACK VORTAC116.4004E
DAKr047/34.4DRAKE VOR/DME115.2507E

Airport Services

Fuel available: 100LL
FUEL AVBL 24 HR SELF SERVE WITH CREDIT CARD.
Parking: hangars and tiedowns
Airframe service: MAJOR
Powerplant service: MAJOR
Bottled oxygen: NONE
Bulk oxygen: NONE

Runway Information

Runway 7/25

Dimensions: 3554 x 75 ft. / 1083 x 23 m
Surface: asphalt, in excellent condition
Weight bearing capacity: 
Single wheel: 12.0
Runway edge lights: medium intensity
RUNWAY 7  RUNWAY 25
Latitude: 36-22.797025N36-22.964125N
Longitude: 093-37.819565W093-37.125405W
Elevation: 1166.6 ft.1204.9 ft.
Gradient: 1.1% UP0.9%
Traffic pattern: leftleft
Runway heading: 071 magnetic, 073 true251 magnetic, 253 true
Markings: nonprecision, in fair conditionnonprecision, in fair condition
Visual slope indicator: 2-light PAPI on left (3.00 degrees glide path)2-light PAPI on left (4.00 degrees glide path)
Runway end identifier lights: yesyes
Touchdown point: yes, no lightsyes, no lights

Airport Ownership and Management from official FAA records

Ownership: Publicly-owned
Owner: CARROLL COUNTY
210 WEST CHURCH ST.
BERRYVILLE, AR 72616
Phone 870-423-2668
Manager: MICHAEL PFEIFER
518 COUNTY ROAD 308
BERRYVILLE, AR 72616
Phone 870-423-8393

Airport Operational Statistics

Aircraft based on the field: 19
Single engine airplanes: 13
Multi engine airplanes: 1
Ultralights: 5
    
Aircraft operations: avg 50/day *
55% transient general aviation
44% local general aviation
1% military
* for 12-month period ending 31 August 2015

Additional Remarks

NO LINE OF SIGHT BTN RY ENDS.
ULTRALIGHT ACTIVITY ON & INVOF ARPT.
DEER ON & INVOF ARPT.

Instrument Procedures

NOTE: All procedures below are presented as PDF files. If you need a reader for these files, you should download the free Adobe Reader.

NOT FOR NAVIGATION. Please procure official charts for flight.
FAA instrument procedures published for use from 26 April 2018 at 901Z to 24 May 2018 at 0900Z.

 
IAPs - Instrument Approach Procedures
RNAV (GPS) RWY 07   download (207KB)
RNAV (GPS) RWY 25   download (234KB)
NOTE: Special Take-Off Minimums/Departure Procedures apply   download (131KB)

Other nearby airports with instrument procedures:

H34 - Huntsville Municipal Airport (19 nm S)
KFWB - Branson West Municipal Airport - Emerson Field (22 nm NE)
KBBG - Branson Airport (22 nm NE)
94K - Cassville Municipal Airport (23 nm NW)
KROG - Rogers Executive Airport - Carter Field (23 nm W)
 
Loc | Ops | Rwys | IFR | FBO | Links
Com | Nav | Svcs | Stats | Notes

Branson Jet Center
AirBoss

 
Area around 4M1 (Carroll County Airport)
 
Road maps at: MapQuest Bing Google
 
Aerial photo
WARNING: Photo may not be current or correct
Aerial photo of 4M1 (Carroll County Airport)
Photo courtesy of the Arkansas Department of Aeronautics
Taken in the Spring of 2007

Do you have a better or more recent aerial photo of Carroll County Airport that you would like to share? If so, please send us your photo.

 
Sectional chart

 
Airport distance calculator
Flying to Carroll County Airport? Find the distance to fly.

From to 4M1

Sunrise and sunset
Times for 27-Apr-2018
 Local
(UTC-5)
 Zulu
(UTC)
Morning civil twilight05:5910:59
Sunrise06:2711:27
Sunset19:5800:58
Evening civil twilight20:2501:25

Current date and time
Zulu (UTC)  27-Apr-2018 05:42:12
Local (UTC-5)  27-Apr-2018 00:42:12
 
METAR
KFWB 
22nm NE 
270515Z AUTO 28004KT 10SM CLR 12/09 A3001 RMK AO2
KROG 
22nm W 
270458Z AUTO 22003KT 10SM CLR 10/08 A3003 RMK AO2 SLP169 T01000083 401500089
KBBG 
22nm NE 
270515Z AUTO 00000KT 10SM CLR 12/09 A3001 RMK AO2
KHRO 
24nm E 
270453Z AUTO 27006KT 10SM CLR 11/09 A3001 RMK AO2 SLP160 T01110089
KASG 
27nm SW 
270148Z 00000KT 10SM SKC 13/09 A3002
KVBT 
29nm W 
270456Z AUTO 00000KT 10SM CLR 11/08 A3005 RMK AO2 SLP177 T01060083
KXNA 
33nm W 
270453Z AUTO 00000KT 10SM CLR 09/07 A3003 RMK AO2 SLP166 T00940067
KFYV 
34nm SW 
270453Z AUTO 00000KT 3SM BR CLR 07/07 A3003 RMK AO2 SLP169 T00720072
KHFJ 
37nm NW 
270510Z AUTO 22004KT 10SM CLR 10/08 A3001 RMK AO2
KSLG 
42nm W 
270456Z AUTO 00000KT 10SM CLR 09/08 A3004 RMK AO2 SLP171 T00940083
TAF
KROG 
22nm W 
261948Z 2620/2718 33008KT P6SM SCT021 OVC026 FM270000 31005KT P6SM OVC050 FM270600 33004KT P6SM SCT250
KBBG 
22nm NE 
262104Z 2621/2718 28005KT P6SM OVC040= TAF AMD KIWD 262104Z 2621/2718 01008KT P6SM FEW020 BKN050 TEMPO 2621/2623 BKN020 FM262300 35006KT P6SM BKN040 FM270800 00000KT P6SM SCT110 FM271100 18003KT P6SM -SHSN BKN050 FM271300 16004KT 4SM -SHSNRA OVC040 FM271500 16005KT P6SM -SHRA OVC025 FM271700 06007KT P6SM -SHRA BKN015
KHRO 
24nm E 
261738Z 2618/2718 34008KT P6SM OVC015 FM262100 33006KT P6SM BKN030 FM262300 33005KT P6SM BKN040 FM270400 30005KT P6SM BKN250
NOTAMs
Click for the latest NOTAMs
NOTAMs are issued by the DoD/FAA and will open in a separate window not controlled by AirNav.

 

 
 

FBO, Fuel Providers, and Aircraft Ground Support

  
 Business Name 
 
 Contact 
 
 Services / Description 
 
Fuel Prices
 
Comments
  
Carroll County Airport 870-423-8393
870-423-2120
[web site]
[email]

Like us on facebook
Airport management, Aviation fuel, Aircraft parking (ramp or tiedown), Hangars, Hangar leasing / sales, Passenger terminal and lounge, Flight training, ...

More info about Carroll County Airport
Shell
100LL
SS $3.99 
 Updated 19-Apr-2018
 
   9 read write
SS=Self service
Update Fuel Prices
 

Would you like to see your business listed on this page?

 If your business provides an interesting product or service to pilots, flight crews, aircraft, or users of the Carroll County Airport, you should consider listing it here.  To start the listing process, click on the button below
 
Add a business
 

Other Pages about Carroll County Airport

co.carroll.ar.us
Carroll County Airport
 
Update a link
 
Copyright © AirNav, LLC. All rights reserved. Privacy Policy  Contact